Time;durP1;ratioP1;P1;durP2;ratioP2;P2;SDS_P1;SDS_P2;PMS_P1;PMS_P2;Temp;Humidity;BMP_temperature;BMP_pressure;BME280_temperature;BME280_humidity;BME280_pressure;Samples;Min_cycle;Max_cycle;Signal;HPM_P1;HPM_P2
2022/03/16 00:02:04;;;;;;;0.00;0.00;;;10.40;83.30;;;;;;4090053;28;20044;-71
2022/03/16 00:04:28;;;;;;;0.00;0.00;;;10.30;83.60;;;;;;4092543;28;20402;-73
2022/03/16 00:06:53;;;;;;;0.00;0.00;;;10.30;83.90;;;;;;4119531;28;20054;-73
2022/03/16 00:09:15;;;;;;;0.00;0.00;;;10.30;84.10;;;;;;4106529;28;20416;-70
2022/03/16 00:11:48;;;;;;;0.00;0.00;;;10.30;84.60;;;;;;4103313;28;20125;-72
2022/03/16 00:14:10;;;;;;;0.00;0.00;;;10.30;84.80;;;;;;4132734;28;20086;-73
2022/03/16 00:16:40;;;;;;;0.00;0.00;;;10.30;84.90;;;;;;4132570;28;20044;-70
2022/03/16 00:19:05;;;;;;;0.00;0.00;;;10.30;84.80;;;;;;4119679;28;20701;-73
2022/03/16 00:21:30;;;;;;;0.00;0.00;;;10.40;84.80;;;;;;4116356;28;20711;-73
2022/03/16 00:24:00;;;;;;;0.00;0.00;;;10.40;84.60;;;;;;4103004;28;20059;-71
2022/03/16 00:26:22;;;;;;;0.00;0.00;;;10.40;84.60;;;;;;4115360;28;20058;-73
2022/03/16 00:28:47;;;;;;;0.00;0.00;;;10.40;84.40;;;;;;4116321;28;20039;-72
2022/03/16 00:31:19;;;;;;;0.00;0.00;;;10.30;84.50;;;;;;4078535;28;20047;-72
2022/03/16 00:33:41;;;;;;;0.00;0.00;;;10.30;84.70;;;;;;4116341;28;20085;-72
2022/03/16 00:36:04;;;;;;;0.00;0.00;;;10.30;84.90;;;;;;4089566;28;20051;-71
2022/03/16 00:38:29;;;;;;;0.00;0.00;;;10.20;85.10;;;;;;4102514;28;20047;-72
2022/03/16 00:40:58;;;;;;;0.00;0.00;;;10.00;85.60;;;;;;4102918;28;20051;-72
2022/03/16 00:43:23;;;;;;;0.00;0.00;;;9.90;86.20;;;;;;4102631;28;20091;-71
2022/03/16 00:45:47;;;;;;;0.00;0.00;;;9.90;86.30;;;;;;4116199;28;20058;-71
2022/03/16 00:48:12;;;;;;;0.00;0.00;;;10.00;86.10;;;;;;4102239;28;20055;-71
2022/03/16 00:50:38;;;;;;;0.00;0.00;;;10.10;86.00;;;;;;4102670;28;20047;-72
2022/03/16 00:53:03;;;;;;;0.00;0.00;;;10.20;85.90;;;;;;4102755;28;20087;-72
2022/03/16 00:55:25;;;;;;;0.00;0.00;;;10.20;85.60;;;;;;4102616;28;20071;-70
2022/03/16 00:57:49;;;;;;;0.00;0.00;;;10.20;85.40;;;;;;4102705;28;20055;-71
2022/03/16 01:00:14;;;;;;;0.00;0.00;;;10.20;85.30;;;;;;4088891;28;20055;-70
2022/03/16 01:02:36;;;;;;;0.00;0.00;;;10.20;85.20;;;;;;4115897;28;20088;-71
2022/03/16 01:04:59;;;;;;;0.00;0.00;;;10.30;85.00;;;;;;4089345;28;20061;-71
2022/03/16 01:07:25;;;;;;;0.00;0.00;;;10.30;84.80;;;;;;4102572;28;20051;-69
2022/03/16 01:09:51;;;;;;;0.00;0.00;;;10.30;84.50;;;;;;4115902;28;20047;-70
2022/03/16 01:12:31;;;;;;;0.00;0.00;;;10.30;84.50;;;;;;4090431;28;20043;-72
2022/03/16 01:15:10;;;;;;;0.00;0.00;;;10.30;84.50;;;;;;4115918;28;20370;-71
2022/03/16 01:17:40;;;;;;;0.00;0.00;;;10.20;84.30;;;;;;4101999;28;20047;-71
2022/03/16 01:20:11;;;;;;;0.00;0.00;;;10.20;84.30;;;;;;4115597;28;20043;-71
2022/03/16 01:22:35;;;;;;;0.00;0.00;;;10.20;84.30;;;;;;4089300;28;20443;-71
2022/03/16 01:24:58;;;;;;;0.00;0.00;;;10.20;84.40;;;;;;4116317;28;20043;-70
2022/03/16 01:27:21;;;;;;;0.00;0.00;;;10.20;84.30;;;;;;4102685;28;20124;-72
2022/03/16 01:29:57;;;;;;;0.00;0.00;;;10.20;84.80;;;;;;4116413;28;20055;-72
2022/03/16 01:32:20;;;;;;;0.00;0.00;;;10.20;84.10;;;;;;4115265;28;20055;-69
2022/03/16 01:35:01;;;;;;;0.00;0.00;;;10.10;84.10;;;;;;4115451;28;20049;-69
2022/03/16 01:37:37;;;;;;;0.00;0.00;;;10.10;84.00;;;;;;4090255;28;20114;-71
2022/03/16 01:39:59;;;;;;;0.00;0.00;;;10.10;83.80;;;;;;4115433;28;20051;-71
2022/03/16 01:42:25;;;;;;;0.00;0.00;;;10.10;83.80;;;;;;4077048;28;20449;-71
2022/03/16 01:45:00;;;;;;;0.00;0.00;;;10.10;83.70;;;;;;4092170;28;20061;-72
2022/03/16 01:47:24;;;;;;;0.00;0.00;;;10.00;83.50;;;;;;4115915;28;20051;-72
2022/03/16 01:49:58;;;;;;;0.00;0.00;;;10.00;83.80;;;;;;4115455;28;20074;-70
2022/03/16 01:52:33;;;;;;;0.00;0.00;;;10.00;84.10;;;;;;4115662;28;20046;-71
2022/03/16 01:55:13;;;;;;;0.00;0.00;;;10.00;84.30;;;;;;4104304;28;20050;-72
2022/03/16 01:57:42;;;;;;;0.00;0.00;;;10.00;84.60;;;;;;4089341;28;20109;-72
2022/03/16 02:00:08;;;;;;;0.00;0.00;;;10.00;84.80;;;;;;4115039;28;20137;-70
2022/03/16 02:02:39;;;;;;;0.00;0.00;;;10.00;84.90;;;;;;4115349;28;20050;-73
2022/03/16 02:05:14;;;;;;;;;;;10.10;84.90;;;;;;4103553;28;20058;-69
2022/03/16 02:07:49;;;;;;;0.00;0.00;;;10.00;84.90;;;;;;4103195;28;19953;-70
2022/03/16 02:10:17;;;;;;;0.00;0.00;;;10.00;84.70;;;;;;4115525;28;20073;-70
2022/03/16 02:12:49;;;;;;;0.00;0.00;;;10.00;84.80;;;;;;4116032;28;20389;-73
2022/03/16 02:15:23;;;;;;;0.00;0.00;;;9.90;84.70;;;;;;4115912;28;20496;-71
2022/03/16 02:17:50;;;;;;;0.00;0.00;;;9.90;84.60;;;;;;4115161;28;20131;-70
2022/03/16 02:20:29;;;;;;;0.00;0.00;;;9.90;84.60;;;;;;4115410;28;20047;-72
2022/03/16 02:22:59;;;;;;;0.00;0.00;;;9.90;84.50;;;;;;4102822;28;20083;-70
2022/03/16 02:25:34;;;;;;;0.00;0.00;;;9.90;84.50;;;;;;4103078;28;20047;-72
2022/03/16 02:28:16;;;;;;;0.00;0.00;;;10.00;84.50;;;;;;4104372;28;20047;-70
2022/03/16 02:30:49;;;;;;;0.00;0.00;;;9.90;84.50;;;;;;4104148;28;20047;-71
2022/03/16 02:33:19;;;;;;;0.00;0.00;;;10.00;84.70;;;;;;4104923;28;20101;-72
2022/03/16 02:35:41;;;;;;;0.00;0.00;;;10.00;84.90;;;;;;4118928;28;20066;-72
2022/03/16 02:38:06;;;;;;;0.00;0.00;;;9.90;84.70;;;;;;4104265;28;20070;-70
2022/03/16 02:40:31;;;;;;;0.00;0.00;;;9.90;85.30;;;;;;4091280;28;20091;-73
2022/03/16 02:42:55;;;;;;;0.00;0.00;;;9.90;85.10;;;;;;4104610;28;20098;-72
2022/03/16 02:45:20;;;;;;;0.00;0.00;;;9.90;84.80;;;;;;4104579;28;20051;-71
2022/03/16 02:47:49;;;;;;;0.00;0.00;;;10.00;84.50;;;;;;4104408;28;20397;-73
2022/03/16 02:50:14;;;;;;;0.00;0.00;;;10.00;84.30;;;;;;4104156;28;20059;-73
2022/03/16 02:52:36;;;;;;;0.00;0.00;;;10.10;84.00;;;;;;4104862;28;20370;-71
2022/03/16 02:54:58;;;;;;;0.00;0.00;;;10.00;83.70;;;;;;4104393;28;20043;-70
2022/03/16 02:57:25;;;;;;;0.00;0.00;;;10.00;83.40;;;;;;4104493;28;20555;-72
2022/03/16 02:59:47;;;;;;;0.00;0.00;;;9.90;83.30;;;;;;4090584;28;20150;-69
2022/03/16 03:02:10;;;;;;;0.00;0.00;;;9.90;83.30;;;;;;4104000;28;20058;-71
2022/03/16 03:04:33;;;;;;;0.00;0.00;;;9.90;83.40;;;;;;4091159;28;20051;-71
2022/03/16 03:06:55;;;;;;;0.00;0.00;;;9.90;83.40;;;;;;4077937;28;20584;-72
2022/03/16 03:09:21;;;;;;;0.00;0.00;;;9.90;83.30;;;;;;4104423;28;20443;-74
2022/03/16 03:11:43;;;;;;;0.00;0.00;;;9.90;83.00;;;;;;4104254;28;20126;-69
2022/03/16 03:14:06;;;;;;;0.00;0.00;;;9.80;83.30;;;;;;4103840;28;20067;-69
2022/03/16 03:16:28;;;;;;;0.00;0.00;;;9.60;83.80;;;;;;4104282;28;20039;-72
2022/03/16 03:18:52;;;;;;;0.00;0.00;;;9.50;84.30;;;;;;4104263;28;20039;-70
2022/03/16 03:21:14;;;;;;;0.00;0.00;;;9.50;84.30;;;;;;4090901;28;20047;-72
2022/03/16 03:23:36;;;;;;;0.00;0.00;;;9.60;84.30;;;;;;4104124;28;20489;-70
2022/03/16 03:25:58;;;;;;;0.00;0.00;;;9.60;84.10;;;;;;4103982;28;20062;-69
2022/03/16 03:28:23;;;;;;;0.00;0.00;;;9.60;83.60;;;;;;4090378;28;20105;-70
2022/03/16 03:30:47;;;;;;;0.00;0.00;;;9.70;83.20;;;;;;4091040;28;20051;-72
2022/03/16 03:33:10;;;;;;;0.00;0.00;;;9.70;82.90;;;;;;4104014;28;20544;-72
2022/03/16 03:35:32;;;;;;;0.00;0.00;;;9.60;82.90;;;;;;4103884;28;20481;-71
2022/03/16 03:37:54;;;;;;;0.00;0.00;;;9.60;83.60;;;;;;4104332;28;20047;-72
2022/03/16 03:40:16;;;;;;;0.00;0.00;;;9.60;84.30;;;;;;4064159;28;20138;-71
2022/03/16 03:42:38;;;;;;;0.00;0.00;;;9.60;84.70;;;;;;4089961;28;20048;-71
2022/03/16 03:45:02;;;;;;;0.00;0.00;;;9.70;85.00;;;;;;4103839;28;20109;-69
2022/03/16 03:47:24;;;;;;;0.00;0.00;;;9.70;85.10;;;;;;4103627;28;20055;-69
2022/03/16 03:49:48;;;;;;;0.00;0.00;;;9.60;85.40;;;;;;4090613;28;20059;-71
2022/03/16 03:52:13;;;;;;;0.00;0.00;;;9.60;85.40;;;;;;4103157;28;20059;-70
2022/03/16 03:54:35;;;;;;;0.00;0.00;;;9.70;85.40;;;;;;4103725;28;20546;-70
2022/03/16 03:57:00;;;;;;;0.00;0.00;;;9.70;85.30;;;;;;4090575;28;20111;-70
2022/03/16 03:59:25;;;;;;;0.00;0.00;;;9.70;85.30;;;;;;4103671;28;20512;-72
2022/03/16 04:01:50;;;;;;;0.00;0.00;;;9.70;85.60;;;;;;4103259;28;20577;-72
2022/03/16 04:04:15;;;;;;;0.00;0.00;;;9.80;85.80;;;;;;4089820;28;20378;-73
2022/03/16 04:06:38;;;;;;;0.00;0.00;;;9.70;85.70;;;;;;4090220;28;20043;-71
2022/03/16 04:09:04;;;;;;;0.00;0.00;;;9.70;85.80;;;;;;4104024;28;20113;-71
2022/03/16 04:11:29;;;;;;;0.00;0.00;;;9.60;85.90;;;;;;4103414;28;20485;-70
2022/03/16 04:13:51;;;;;;;0.00;0.00;;;9.60;86.40;;;;;;4103129;28;20043;-71
2022/03/16 04:16:13;;;;;;;0.00;0.00;;;9.50;86.70;;;;;;4103147;28;20066;-72
2022/03/16 04:18:38;;;;;;;0.00;0.00;;;9.50;87.00;;;;;;4090412;28;20042;-70
2022/03/16 04:21:06;;;;;;;0.00;0.00;;;9.50;87.10;;;;;;4090471;28;20047;-70
2022/03/16 04:23:30;;;;;;;0.00;0.00;;;9.60;87.20;;;;;;4089998;28;20066;-74
2022/03/16 04:25:52;;;;;;;0.00;0.00;;;9.50;87.30;;;;;;4102957;28;20062;-69
2022/03/16 04:28:16;;;;;;;0.00;0.00;;;9.50;87.40;;;;;;4102624;28;20059;-74
2022/03/16 04:30:38;;;;;;;0.00;0.00;;;9.60;87.40;;;;;;4102958;28;20086;-74
2022/03/16 04:33:01;;;;;;;0.00;0.00;;;9.50;87.40;;;;;;4103276;28;20451;-73
2022/03/16 04:35:23;;;;;;;0.00;0.00;;;9.50;87.30;;;;;;4103085;28;20058;-70
2022/03/16 04:37:46;;;;;;;0.00;0.00;;;9.50;87.20;;;;;;4102998;28;20135;-70
2022/03/16 04:40:08;;;;;;;0.00;0.00;;;9.40;87.40;;;;;;4102466;28;20489;-72
2022/03/16 04:42:30;;;;;;;0.00;0.00;;;9.40;87.50;;;;;;4116099;28;20374;-72
2022/03/16 04:44:55;;;;;;;0.00;0.00;;;9.40;87.60;;;;;;4102920;28;20055;-70
2022/03/16 04:47:19;;;;;;;0.00;0.00;;;9.40;87.20;;;;;;4076109;28;20470;-72
2022/03/16 04:49:43;;;;;;;0.00;0.00;;;9.40;87.30;;;;;;4102779;28;20240;-72
2022/03/16 04:52:10;;;;;;;0.00;0.00;;;9.40;87.20;;;;;;4089630;28;20166;-70
2022/03/16 04:54:32;;;;;;;0.00;0.00;;;9.40;87.20;;;;;;4102051;28;20047;-71
2022/03/16 04:56:57;;;;;;;0.00;0.00;;;9.40;87.30;;;;;;4076874;28;20079;-70
2022/03/16 04:59:19;;;;;;;0.00;0.00;;;9.40;87.50;;;;;;4102643;28;20043;-72
2022/03/16 05:01:41;;;;;;;0.00;0.00;;;9.40;87.60;;;;;;4102558;28;20047;-72
2022/03/16 05:04:06;;;;;;;0.00;0.00;;;9.40;87.50;;;;;;4102111;28;20134;-70
2022/03/16 05:06:29;;;;;;;0.00;0.00;;;9.50;87.30;;;;;;4103043;28;20062;-73
2022/03/16 05:08:51;;;;;;;0.00;0.00;;;9.50;87.30;;;;;;4102643;28;20055;-73
2022/03/16 05:11:13;;;;;;;0.00;0.00;;;9.50;87.30;;;;;;4102741;28;20532;-72
2022/03/16 05:13:35;;;;;;;0.00;0.00;;;9.50;87.20;;;;;;4102359;28;20090;-72
2022/03/16 05:15:57;;;;;;;0.00;0.00;;;9.50;87.50;;;;;;4102539;28;20062;-72
2022/03/16 05:18:19;;;;;;;0.00;0.00;;;9.50;87.90;;;;;;4088968;28;20051;-71
2022/03/16 05:20:41;;;;;;;0.00;0.00;;;9.40;88.40;;;;;;4115982;28;20053;-72
2022/03/16 05:23:03;;;;;;;0.00;0.00;;;9.40;88.70;;;;;;4102985;28;20058;-71
2022/03/16 05:25:27;;;;;;;0.00;0.00;;;9.40;88.60;;;;;;4102456;28;20393;-74
2022/03/16 05:27:55;;;;;;;0.00;0.00;;;9.40;88.40;;;;;;4102589;28;20078;-71
2022/03/16 05:30:20;;;;;;;0.00;0.00;;;9.40;88.40;;;;;;4102155;28;20055;-70
2022/03/16 05:32:43;;;;;;;0.00;0.00;;;9.40;88.40;;;;;;4102755;28;20438;-69
2022/03/16 05:35:06;;;;;;;0.00;0.00;;;9.40;88.30;;;;;;4089178;28;20051;-70
2022/03/16 05:37:30;;;;;;;0.00;0.00;;;9.50;88.10;;;;;;4089482;28;20051;-71
2022/03/16 05:39:55;;;;;;;0.00;0.00;;;9.50;87.80;;;;;;4102388;28;20048;-70
2022/03/16 05:42:20;;;;;;;0.00;0.00;;;9.50;87.70;;;;;;4102089;28;20512;-71
2022/03/16 05:44:44;;;;;;;0.00;0.00;;;9.50;87.50;;;;;;4076437;28;20724;-71
2022/03/16 05:47:09;;;;;;;0.00;0.00;;;9.50;87.40;;;;;;4102299;28;20055;-71
2022/03/16 05:49:33;;;;;;;0.00;0.00;;;9.50;87.30;;;;;;4086237;29;20044;-71
2022/03/16 05:51:57;;;;;;;0.00;0.00;;;9.60;87.20;;;;;;4086522;29;20054;-72
2022/03/16 05:54:22;;;;;;;0.00;0.00;;;9.50;87.00;;;;;;4085891;28;20455;-71
2022/03/16 05:56:46;;;;;;;0.00;0.00;;;9.50;87.10;;;;;;4086275;29;20129;-71
2022/03/16 05:59:13;;;;;;;0.00;0.00;;;9.50;87.10;;;;;;4074007;29;20055;-73
2022/03/16 06:01:35;;;;;;;0.00;0.00;;;9.50;87.00;;;;;;4086357;29;20099;-72
2022/03/16 06:03:59;;;;;;;0.00;0.00;;;9.50;87.00;;;;;;4086348;29;20441;-71
2022/03/16 06:06:21;;;;;;;0.00;0.00;;;9.50;87.50;;;;;;4073232;29;20048;-72
2022/03/16 06:08:46;;;;;;;0.00;0.00;;;9.50;86.80;;;;;;4074113;29;20048;-72
2022/03/16 06:11:11;;;;;;;0.00;0.00;;;9.40;86.90;;;;;;4087025;29;20082;-70
2022/03/16 06:13:35;;;;;;;0.00;0.00;;;9.40;86.70;;;;;;4085606;29;20494;-73
2022/03/16 06:15:57;;;;;;;0.00;0.00;;;9.50;86.60;;;;;;4089428;29;20055;-69
2022/03/16 06:18:19;;;;;;;0.00;0.00;;;9.50;86.30;;;;;;4075776;28;20171;-69
2022/03/16 06:20:41;;;;;;;0.00;0.00;;;9.50;86.30;;;;;;4089630;29;20467;-74
2022/03/16 06:23:05;;;;;;;0.00;0.00;;;9.50;86.50;;;;;;4089325;29;20142;-74
2022/03/16 06:25:33;;;;;;;0.00;0.00;;;9.50;86.50;;;;;;4089327;29;20450;-72
2022/03/16 06:27:59;;;;;;;0.00;0.00;;;9.60;86.40;;;;;;4089633;29;20078;-73
2022/03/16 06:30:24;;;;;;;0.00;0.00;;;9.70;86.10;;;;;;4089132;29;20143;-72
2022/03/16 06:32:47;;;;;;;0.00;0.00;;;9.70;86.00;;;;;;4089685;29;20087;-71
2022/03/16 06:35:10;;;;;;;0.00;0.00;;;9.60;86.10;;;;;;4076691;29;20043;-72
2022/03/16 06:37:32;;;;;;;0.00;0.00;;;9.60;86.20;;;;;;4090065;29;20051;-72
2022/03/16 06:39:57;;;;;;;0.00;0.00;;;9.60;86.20;;;;;;4076885;29;21067;-74
2022/03/16 06:42:21;;;;;;;0.00;0.00;;;9.70;86.30;;;;;;4090378;28;20043;-71
2022/03/16 06:44:48;;;;;;;0.00;0.00;;;9.80;86.00;;;;;;4091456;29;20065;-73
2022/03/16 06:47:13;;;;;;;0.00;0.00;;;9.80;85.90;;;;;;4090239;28;20086;-72
2022/03/16 06:49:38;;;;;;;0.00;0.00;;;9.90;85.70;;;;;;4092703;28;20047;-77
2022/03/16 06:52:02;;;;;;;0.00;0.00;;;10.00;85.70;;;;;;4105708;28;20117;-73
2022/03/16 06:54:24;;;;;;;0.00;0.00;;;10.00;85.70;;;;;;4093074;28;20140;-72
2022/03/16 06:56:49;;;;;;;0.00;0.00;;;10.10;85.80;;;;;;4106013;28;20406;-76
2022/03/16 06:59:11;;;;;;;0.00;0.00;;;10.10;85.80;;;;;;4105100;28;20390;-71
2022/03/16 07:01:39;;;;;;;0.00;0.00;;;10.10;86.10;;;;;;4105047;28;20498;-73
2022/03/16 07:04:04;;;;;;;0.00;0.00;;;10.20;86.30;;;;;;4092305;28;20448;-73
2022/03/16 07:06:26;;;;;;;0.00;0.00;;;10.20;86.10;;;;;;4091803;28;20107;-73
2022/03/16 07:08:50;;;;;;;0.00;0.00;;;10.30;86.10;;;;;;4065488;28;20056;-74
2022/03/16 07:11:15;;;;;;;0.00;0.00;;;10.40;86.20;;;;;;4104804;28;20117;-72
2022/03/16 07:13:38;;;;;;;0.00;0.00;;;10.50;86.20;;;;;;4104899;28;20063;-74
2022/03/16 07:16:00;;;;;;;0.00;0.00;;;10.60;85.90;;;;;;4104168;28;20047;-74
2022/03/16 07:18:25;;;;;;;0.00;0.00;;;10.50;86.10;;;;;;4104223;28;20047;-73
2022/03/16 07:20:49;;;;;;;0.00;0.00;;;10.50;86.60;;;;;;4104572;28;20114;-74
2022/03/16 07:23:16;;;;;;;0.00;0.00;;;10.70;86.70;;;;;;4104888;28;20359;-74
2022/03/16 07:25:43;;;;;;;0.00;0.00;;;10.90;86.20;;;;;;4104793;28;20059;-74
2022/03/16 07:28:06;;;;;;;0.00;0.00;;;10.90;86.40;;;;;;4104310;28;20133;-75
2022/03/16 07:30:32;;;;;;;0.00;0.00;;;11.00;86.20;;;;;;4104246;28;20044;-74
2022/03/16 07:32:54;;;;;;;0.00;0.00;;;11.20;86.00;;;;;;4091315;28;20051;-73
2022/03/16 07:35:16;;;;;;;0.00;0.00;;;11.30;85.10;;;;;;4104661;28;20130;-73
2022/03/16 07:37:42;;;;;;;0.00;0.00;;;11.30;85.30;;;;;;4104585;28;20051;-76
2022/03/16 07:40:08;;;;;;;0.00;0.00;;;11.40;84.70;;;;;;4091460;28;20051;-75
2022/03/16 07:42:33;;;;;;;0.00;0.00;;;11.20;85.20;;;;;;4077296;28;20069;-76
2022/03/16 07:44:56;;;;;;;0.00;0.00;;;11.10;86.10;;;;;;4104565;28;20493;-75
2022/03/16 07:47:20;;;;;;;0.00;0.00;;;11.10;86.30;;;;;;4090687;28;20067;-75
2022/03/16 07:49:58;;;;;;;0.00;0.00;;;11.30;86.20;;;;;;4104253;28;20047;-73
2022/03/16 07:52:21;;;;;;;0.00;0.00;;;11.70;85.50;;;;;;4117151;28;20509;-73
2022/03/16 07:54:43;;;;;;;0.00;0.00;;;11.90;84.40;;;;;;4104659;28;20051;-74
2022/03/16 07:57:05;;;;;;;0.00;0.00;;;11.80;84.20;;;;;;4104381;28;20489;-75
2022/03/16 07:59:29;;;;;;;0.00;0.00;;;11.90;84.30;;;;;;4091017;28;20455;-74
2022/03/16 08:01:51;;;;;;;0.00;0.00;;;11.90;84.00;;;;;;4090885;28;20094;-75
2022/03/16 08:04:18;;;;;;;0.00;0.00;;;12.00;83.60;;;;;;4090556;28;20048;-73
2022/03/16 08:06:42;;;;;;;0.00;0.00;;;12.10;83.20;;;;;;4117692;28;20054;-74
2022/03/16 08:09:06;;;;;;;0.00;0.00;;;12.30;82.80;;;;;;4103986;28;20043;-76
2022/03/16 08:11:28;;;;;;;0.00;0.00;;;12.50;82.50;;;;;;4090802;28;20055;-74
2022/03/16 08:13:53;;;;;;;0.00;0.00;;;12.70;82.40;;;;;;4077373;28;20083;-76
2022/03/16 08:16:17;;;;;;;0.00;0.00;;;13.00;81.70;;;;;;4103312;28;20342;-75
2022/03/16 08:18:42;;;;;;;0.00;0.00;;;12.70;81.00;;;;;;4104019;28;20114;-73
2022/03/16 08:21:07;;;;;;;0.00;0.00;;;12.50;82.10;;;;;;4104035;28;20047;-74
2022/03/16 08:23:32;;;;;;;0.00;0.00;;;12.80;82.10;;;;;;4104258;28;20044;-72
2022/03/16 08:25:57;;;;;;;0.00;0.00;;;13.20;81.50;;;;;;4103824;28;20047;-76
2022/03/16 08:28:21;;;;;;;0.00;0.00;;;13.50;80.10;;;;;;4103539;28;20043;-76
2022/03/16 08:30:47;;;;;;;0.00;0.00;;;13.80;79.10;;;;;;4103811;28;20535;-72
2022/03/16 08:33:12;;;;;;;0.00;0.00;;;14.10;78.70;;;;;;4103602;28;20043;-73
2022/03/16 08:35:36;;;;;;;0.00;0.00;;;14.30;77.90;;;;;;4103465;28;20043;-73
2022/03/16 08:37:58;;;;;;;0.00;0.00;;;14.20;76.50;;;;;;4103525;28;20047;-72
2022/03/16 08:40:25;;;;;;;0.00;0.00;;;13.90;77.10;;;;;;4102678;28;20401;-73
2022/03/16 08:42:52;;;;;;;0.00;0.00;;;13.80;77.30;;;;;;4103503;28;20517;-74
2022/03/16 08:45:14;;;;;;;0.00;0.00;;;14.00;77.30;;;;;;4116543;28;20079;-75
2022/03/16 08:47:37;;;;;;;0.00;0.00;;;14.20;77.20;;;;;;4103265;28;20069;-74
2022/03/16 08:50:01;;;;;;;0.00;0.00;;;14.40;77.10;;;;;;4089833;28;20447;-73
2022/03/16 08:52:31;;;;;;;0.00;0.00;;;14.60;76.30;;;;;;4116160;28;20042;-75
2022/03/16 08:54:55;;;;;;;0.00;0.00;;;14.90;75.20;;;;;;4103141;28;20043;-73
2022/03/16 08:57:20;;;;;;;0.00;0.00;;;14.80;73.90;;;;;;4103173;28;20133;-75
2022/03/16 08:59:45;;;;;;;0.00;0.00;;;14.60;73.50;;;;;;4116527;28;20488;-72
2022/03/16 09:02:14;;;;;;;0.00;0.00;;;14.40;74.00;;;;;;4102629;28;20099;-74
2022/03/16 09:04:37;;;;;;;0.00;0.00;;;14.40;73.90;;;;;;4089716;28;20085;-73
2022/03/16 09:07:03;;;;;;;0.00;0.00;;;14.60;74.70;;;;;;4103149;28;20385;-75
2022/03/16 09:09:34;;;;;;;0.00;0.00;;;14.90;74.30;;;;;;4115065;28;20051;-73
2022/03/16 09:12:00;;;;;;;0.00;0.00;;;14.90;73.60;;;;;;4103212;28;20058;-71
2022/03/16 09:14:25;;;;;;;0.00;0.00;;;15.20;73.40;;;;;;4089056;28;20063;-72
2022/03/16 09:16:48;;;;;;;0.00;0.00;;;15.40;72.90;;;;;;4103123;28;20158;-73
2022/03/16 09:19:10;;;;;;;0.00;0.00;;;15.50;71.50;;;;;;4103054;28;20043;-72
2022/03/16 09:21:35;;;;;;;0.00;0.00;;;15.50;70.50;;;;;;4102711;28;20138;-74
2022/03/16 09:23:56;;;;;;;0.00;0.00;;;15.50;70.40;;;;;;4102888;28;20047;-73
2022/03/16 09:26:21;;;;;;;0.00;0.00;;;15.60;70.80;;;;;;4090797;28;20091;-72
2022/03/16 09:28:44;;;;;;;0.00;0.00;;;15.50;69.80;;;;;;4118908;28;20520;-71
2022/03/16 09:31:09;;;;;;;0.00;0.00;;;15.60;69.80;;;;;;4132049;28;20104;-73
2022/03/16 09:33:31;;;;;;;0.00;0.00;;;15.70;69.50;;;;;;4102764;28;20047;-75
2022/03/16 09:35:53;;;;;;;0.00;0.00;;;15.80;68.80;;;;;;4116096;28;20047;-74
2022/03/16 09:38:21;;;;;;;0.00;0.00;;;16.00;68.60;;;;;;4090854;28;20048;-74
2022/03/16 09:40:46;;;;;;;0.00;0.00;;;15.80;68.20;;;;;;4118537;28;20097;-72
2022/03/16 09:43:10;;;;;;;0.00;0.00;;;15.90;68.40;;;;;;4116063;28;20129;-72
2022/03/16 09:45:48;;;;;;;0.00;0.00;;;16.00;67.70;;;;;;4102409;28;20055;-72
2022/03/16 09:48:13;;;;;;;0.00;0.00;;;15.90;67.70;;;;;;4089110;28;20060;-74
2022/03/16 09:50:39;;;;;;;0.00;0.00;;;16.00;67.40;;;;;;4118715;28;20448;-74
2022/03/16 09:53:11;;;;;;;0.00;0.00;;;16.10;66.80;;;;;;4102324;28;20058;-72
2022/03/16 09:55:36;;;;;;;0.00;0.00;;;16.00;66.50;;;;;;4089075;28;20052;-73
2022/03/16 09:58:00;;;;;;;0.00;0.00;;;15.90;66.30;;;;;;4102365;28;20804;-75
2022/03/16 10:00:27;;;;;;;0.00;0.00;;;15.90;66.20;;;;;;4088437;28;20055;-72
2022/03/16 10:02:52;;;;;;;0.00;0.00;;;16.00;66.80;;;;;;4102088;28;20051;-72
2022/03/16 10:05:21;;;;;;;0.00;0.00;;;16.20;66.00;;;;;;4102268;28;20562;-74
2022/03/16 10:07:46;;;;;;;0.00;0.00;;;16.50;65.70;;;;;;4089116;28;20063;-71
2022/03/16 10:15:32;;;;;;;0.00;0.00;;;17.10;62.80;;;;;;4073111;29;20088;-73
2022/03/16 10:18:04;;;;;;;0.00;0.00;;;17.10;62.50;;;;;;4088071;29;20065;-74
2022/03/16 10:20:32;;;;;;;0.00;0.00;;;17.30;62.00;;;;;;4115123;28;20437;-72
2022/03/16 10:23:06;;;;;;;0.00;0.00;;;17.30;60.80;;;;;;4115610;28;20466;-74
2022/03/16 10:25:38;;;;;;;0.00;0.00;;;17.10;60.60;;;;;;4115867;28;20085;-72
2022/03/16 10:28:14;;;;;;;0.00;0.00;;;17.00;60.50;;;;;;4129218;28;20134;-72
2022/03/16 10:30:57;;;;;;;0.00;0.00;;;17.10;61.00;;;;;;4128725;28;20134;-73
2022/03/16 10:33:29;;;;;;;0.00;0.00;;;17.10;60.70;;;;;;4115315;28;20070;-75
2022/03/16 10:36:05;;;;;;;0.00;0.00;;;17.00;61.00;;;;;;4102071;28;20039;-74
2022/03/16 10:38:28;;;;;;;0.00;0.00;;;17.00;61.30;;;;;;4128922;28;20077;-75
2022/03/16 10:40:53;;;;;;;0.00;0.00;;;17.30;60.90;;;;;;4129175;28;20473;-74
2022/03/16 10:49:09;;;;;;;0.00;0.00;;;17.80;58.90;;;;;;4080268;28;20062;-73
2022/03/16 10:51:34;;;;;;;0.00;0.00;;;18.10;59.20;;;;;;4102345;28;20422;-72
2022/03/16 10:54:17;;;;;;;0.00;0.00;;;18.40;58.30;;;;;;4104605;28;20051;-72
2022/03/16 10:56:41;;;;;;;0.00;0.00;;;18.60;58.20;;;;;;4104920;28;20047;-73
2022/03/16 10:59:06;;;;;;;0.00;0.00;;;18.80;57.20;;;;;;4091753;28;20139;-74
2022/03/16 11:01:28;;;;;;;0.00;0.00;;;19.10;56.80;;;;;;4118416;28;20047;-74
2022/03/16 11:03:51;;;;;;;0.00;0.00;;;19.40;55.60;;;;;;4105190;28;20089;-73
2022/03/16 11:06:18;;;;;;;0.00;0.00;;;19.50;55.00;;;;;;4091190;28;20067;-73
2022/03/16 11:08:43;;;;;;;0.00;0.00;;;19.60;54.80;;;;;;4105525;28;20062;-72
2022/03/16 11:13:50;;;;;;;0.00;0.00;;;19.70;54.40;;;;;;4088907;29;20082;-72
2022/03/16 11:16:14;;;;;;;0.00;0.00;;;19.70;54.10;;;;;;4088406;29;20051;-73
2022/03/16 11:18:37;;;;;;;0.00;0.00;;;19.80;53.80;;;;;;4088293;29;20497;-73
2022/03/16 11:21:13;;;;;;;0.00;0.00;;;19.60;53.30;;;;;;4102053;28;20048;-73
2022/03/16 11:26:34;;;;;;;0.00;0.00;;;19.60;52.60;;;;;;4100838;28;20438;-72
2022/03/16 11:29:14;;;;;;;0.00;0.00;;;19.50;53.00;;;;;;4115749;28;20461;-72
2022/03/16 11:31:38;;;;;;;0.00;0.00;;;19.20;52.90;;;;;;4102022;28;20126;-73
2022/03/16 11:34:10;;;;;;;0.00;0.00;;;18.60;53.80;;;;;;4101816;28;20394;-75
2022/03/16 11:36:35;;;;;;;0.00;0.00;;;18.30;54.30;;;;;;4101477;28;20058;-72
2022/03/16 11:39:18;;;;;;;0.00;0.00;;;18.30;54.90;;;;;;4115427;28;20043;-73
2022/03/16 11:41:58;;;;;;;0.00;0.00;;;18.30;55.10;;;;;;4101715;28;20051;-74
2022/03/16 11:44:26;;;;;;;0.00;0.00;;;18.60;54.60;;;;;;4101931;28;20051;-76
2022/03/16 11:46:52;;;;;;;0.00;0.00;;;18.60;53.40;;;;;;4114724;28;20047;-74
2022/03/16 11:49:29;;;;;;;0.00;0.00;;;18.10;54.00;;;;;;4115145;28;20483;-74
2022/03/16 11:52:05;;;;;;;0.00;0.00;;;17.90;54.20;;;;;;4114943;28;20054;-72
2022/03/16 11:54:49;;;;;;;0.00;0.00;;;17.70;54.70;;;;;;4102123;28;20145;-73
2022/03/16 11:57:12;;;;;;;;;;;17.70;55.40;;;;;;4115323;28;20047;-71
2022/03/16 11:59:44;;;;;;;0.00;0.00;;;17.70;55.20;;;;;;4101621;28;20476;-70
2022/03/16 12:02:12;;;;;;;0.00;0.00;;;17.70;54.60;;;;;;4101991;28;20047;-72
2022/03/16 12:04:40;;;;;;;0.00;0.00;;;17.40;54.60;;;;;;4115127;28;20070;-74
2022/03/16 12:07:09;;;;;;;0.00;0.00;;;17.00;55.30;;;;;;4114781;28;20046;-72
2022/03/16 12:09:55;;;;;;;0.00;0.00;;;16.80;56.00;;;;;;4117912;28;20047;-71
2022/03/16 12:15:09;;;;;;;0.00;0.00;;;16.90;55.90;;;;;;4099126;28;20087;-73
2022/03/16 12:17:32;;;;;;;0.00;0.00;;;17.00;55.80;;;;;;4095465;28;20043;-71
2022/03/16 12:20:10;;;;;;;0.00;0.00;;;17.10;55.90;;;;;;4091809;28;20534;-73
2022/03/16 12:22:46;;;;;;;0.00;0.00;;;17.10;56.20;;;;;;4117608;28;20134;-73
2022/03/16 12:25:26;;;;;;;0.00;0.00;;;17.20;56.50;;;;;;4090515;28;20109;-74
2022/03/16 12:30:55;;;;;;;0.00;0.00;;;17.50;56.10;;;;;;4103330;28;20043;-73
2022/03/16 12:33:28;;;;;;;0.00;0.00;;;17.60;55.70;;;;;;4117027;28;20482;-75
2022/03/16 12:35:52;;;;;;;0.00;0.00;;;17.60;55.60;;;;;;4103457;28;20094;-73
2022/03/16 12:38:16;;;;;;;0.00;0.00;;;17.60;55.80;;;;;;4089638;28;20048;-74
2022/03/16 12:43:27;;;;;;;0.00;0.00;;;18.00;55.70;;;;;;4103726;28;20055;-73
2022/03/16 12:45:49;;;;;;;0.00;0.00;;;18.20;55.40;;;;;;4117297;28;20047;-73
2022/03/16 12:48:19;;;;;;;0.00;0.00;;;18.20;55.10;;;;;;4088900;28;20063;-73
2022/03/16 12:50:47;;;;;;;0.00;0.00;;;18.20;54.50;;;;;;4087980;29;20051;-74
2022/03/16 12:53:09;;;;;;;0.00;0.00;;;18.10;54.40;;;;;;4082670;28;20055;-71
2022/03/16 12:55:31;;;;;;;0.00;0.00;;;18.00;54.40;;;;;;4091760;28;20075;-72
2022/03/16 12:57:57;;;;;;;0.00;0.00;;;18.00;54.40;;;;;;4088506;28;20111;-74
2022/03/16 13:00:19;;;;;;;0.00;0.00;;;18.00;54.40;;;;;;4100711;28;20047;-74
2022/03/16 13:02:44;;;;;;;0.00;0.00;;;18.00;54.60;;;;;;4087244;29;20055;-72
2022/03/16 13:05:10;;;;;;;0.00;0.00;;;18.10;54.70;;;;;;4095528;28;20058;-71
2022/03/16 13:07:32;;;;;;;0.00;0.00;;;18.00;54.10;;;;;;4116175;28;20055;-73
2022/03/16 13:09:54;;;;;;;0.00;0.00;;;18.00;53.90;;;;;;4103293;28;20498;-74